createdAt,value
2018-05-06T00:04:54.796Z,96050
2018-05-06T00:10:22.925Z,96063
2018-05-06T00:15:52.781Z,96059
2018-05-06T00:21:21.684Z,96053
2018-05-06T00:26:49.848Z,96059
2018-05-06T00:32:18.770Z,96059
2018-05-06T00:37:47.699Z,96060
2018-05-06T00:43:15.860Z,96066
2018-05-06T00:48:44.006Z,96070
2018-05-06T00:54:29.908Z,96065
2018-05-06T00:59:58.065Z,96065
2018-05-06T01:05:26.232Z,96068
2018-05-06T01:10:55.151Z,96069
2018-05-06T01:16:23.287Z,96078
2018-05-06T01:21:52.236Z,96073
2018-05-06T01:27:20.391Z,96065
2018-05-06T01:32:48.537Z,96067
2018-05-06T01:38:16.688Z,96067
2018-05-06T01:43:45.593Z,96065
2018-05-06T01:49:13.730Z,96071
2018-05-06T01:54:41.882Z,96063
2018-05-06T02:00:10.031Z,96062
2018-05-06T02:05:38.190Z,96054
2018-05-06T02:11:08.097Z,96052
2018-05-06T02:16:36.259Z,96059
2018-05-06T02:22:04.489Z,96055
2018-05-06T02:27:32.631Z,96054
2018-05-06T02:33:00.847Z,96055
2018-05-06T02:38:28.992Z,96052
2018-05-06T02:43:57.144Z,96050
2018-05-06T02:49:25.293Z,96051
2018-05-06T02:54:54.219Z,96044
2018-05-06T03:00:22.371Z,96038
2018-05-06T03:05:50.523Z,96032
2018-05-06T03:11:18.672Z,96020
2018-05-06T03:16:46.825Z,96026
2018-05-06T03:22:15.760Z,96024
2018-05-06T03:27:44.685Z,96021
2018-05-06T03:33:13.602Z,96029
2018-05-06T03:38:46.140Z,96030
2018-05-06T03:44:15.053Z,96024
2018-05-06T03:49:44.518Z,96039
2018-05-06T03:55:12.659Z,96037
2018-05-06T04:00:43.510Z,96046
2018-05-06T04:06:11.680Z,96052
2018-05-06T04:11:40.802Z,96048
2018-05-06T04:17:09.716Z,96056
2018-05-06T04:22:38.877Z,96059
2018-05-06T04:28:07.027Z,96068
2018-05-06T04:33:35.183Z,96074
2018-05-06T04:39:03.335Z,96080
2018-05-06T04:44:32.243Z,96078
2018-05-06T04:50:00.405Z,96079
2018-05-06T04:55:29.311Z,96080
2018-05-06T05:00:57.454Z,96078
2018-05-06T05:06:26.370Z,96084
2018-05-06T05:11:54.514Z,96090
2018-05-06T05:17:23.419Z,96099
2018-05-06T05:22:51.572Z,96106
2018-05-06T05:28:20.509Z,96114
2018-05-06T05:33:51.407Z,96114
2018-05-06T05:39:19.554Z,96113
2018-05-06T05:44:47.688Z,96103
2018-05-06T05:50:15.852Z,96115
2018-05-06T05:55:44.793Z,96111
2018-05-06T06:01:13.724Z,96113
2018-05-06T06:06:43.584Z,96123
2018-05-06T06:12:12.501Z,96118
2018-05-06T06:17:41.561Z,96122
2018-05-06T06:23:10.463Z,96118
2018-05-06T06:28:38.624Z,96108
2018-05-06T06:34:07.531Z,96114
2018-05-06T06:39:35.738Z,96121
2018-05-06T06:45:03.949Z,96115
2018-05-06T06:50:32.144Z,96107
2018-05-06T06:56:00.374Z,96111
2018-05-06T07:01:28.531Z,96103
2018-05-06T07:06:56.738Z,96115
2018-05-06T07:12:25.027Z,96114
2018-05-06T07:17:54.142Z,96123
2018-05-06T07:23:23.041Z,96117
2018-05-06T07:28:51.202Z,96122
2018-05-06T07:34:20.121Z,96114
2018-05-06T07:39:48.295Z,96125
2018-05-06T07:45:16.460Z,96126
2018-05-06T07:50:44.606Z,96117
2018-05-06T07:56:14.456Z,96116
2018-05-06T08:01:43.369Z,96117
2018-05-06T08:07:11.520Z,96118
2018-05-06T08:12:40.431Z,96119
2018-05-06T08:18:08.573Z,96111
2018-05-06T08:23:37.491Z,96104
2018-05-06T08:29:05.805Z,96106
2018-05-06T08:34:34.005Z,96105
2018-05-06T08:40:02.389Z,96096
2018-05-06T08:45:31.636Z,96103
2018-05-06T08:51:00.765Z,96103
2018-05-06T08:56:29.719Z,96101
2018-05-06T09:01:58.181Z,96093
2018-05-06T09:07:28.331Z,96087
2018-05-06T09:12:56.513Z,96083
2018-05-06T09:18:24.723Z,96089
2018-05-06T09:23:53.918Z,96090
2018-05-06T09:29:22.087Z,96094
2018-05-06T09:34:50.239Z,96088
2018-05-06T09:40:18.472Z,96092
2018-05-06T09:45:47.615Z,96087
2018-05-06T09:51:15.922Z,96091
2018-05-06T09:56:44.167Z,96089
2018-05-06T10:02:12.326Z,96087
2018-05-06T10:07:40.515Z,96090
2018-05-06T10:13:08.860Z,96089
2018-05-06T10:18:38.117Z,96076
2018-05-06T10:24:06.324Z,96078
2018-05-06T10:29:35.317Z,96068
2018-05-06T10:35:04.623Z,96064
2018-05-06T10:40:32.860Z,96058
2018-05-06T10:46:02.804Z,96055
2018-05-06T10:51:31.743Z,96052
2018-05-06T10:56:59.906Z,96054
2018-05-06T11:02:28.787Z,96048
2018-05-06T11:07:57.876Z,96043
2018-05-06T11:13:26.832Z,96043
2018-05-06T11:18:54.992Z,96027
2018-05-06T11:24:23.165Z,96027
2018-05-06T11:29:51.428Z,96022
2018-05-06T11:35:19.594Z,96014
2018-05-06T11:40:48.500Z,96018
2018-05-06T11:46:18.462Z,96030
2018-05-06T11:51:50.954Z,96022
2018-05-06T11:57:23.228Z,96013
2018-05-06T12:02:52.171Z,96021
2018-05-06T12:08:21.320Z,96011
2018-05-06T12:13:49.483Z,96016
2018-05-06T12:19:17.650Z,96013
2018-05-06T12:24:47.458Z,96009
2018-05-06T12:30:16.576Z,96003
2018-05-06T12:35:44.729Z,95998
2018-05-06T12:41:12.912Z,96005
2018-05-06T12:46:41.173Z,95999
2018-05-06T12:52:10.277Z,95995
2018-05-06T12:57:38.664Z,95997
2018-05-06T13:03:06.854Z,95995
2018-05-06T13:08:35.040Z,95983
2018-05-06T13:14:03.221Z,95974
2018-05-06T13:19:31.357Z,95977
2018-05-06T13:25:00.385Z,95963
2018-05-06T13:30:28.529Z,95967
2018-05-06T13:35:56.675Z,95961
2018-05-06T13:41:24.829Z,95967
2018-05-06T13:46:52.987Z,95955
2018-05-06T13:52:21.917Z,95958
2018-05-06T13:57:50.848Z,95952
2018-05-06T14:03:19.801Z,95947
2018-05-06T14:08:48.744Z,95948
2018-05-06T14:14:16.893Z,95933
2018-05-06T14:19:45.070Z,95938
2018-05-06T14:25:13.998Z,95933
2018-05-06T14:30:42.924Z,95935
2018-05-06T14:36:11.068Z,95931
2018-05-06T14:41:39.971Z,95924
2018-05-06T14:47:25.987Z,95923
2018-05-06T14:52:54.134Z,95900
2018-05-06T14:58:22.270Z,95888
2018-05-06T15:03:51.205Z,95934
2018-05-06T15:09:19.349Z,95933
2018-05-06T15:14:47.482Z,95933
2018-05-06T15:20:15.644Z,95923
2018-05-06T15:25:43.798Z,95934
2018-05-06T15:31:12.766Z,95921
2018-05-06T15:36:41.864Z,95921
2018-05-06T15:42:11.000Z,95916
2018-05-06T15:47:41.073Z,95915
2018-05-06T15:53:09.243Z,95919
2018-05-06T15:58:37.384Z,95915
2018-05-06T16:04:16.008Z,95916
2018-05-06T16:09:44.164Z,95914
2018-05-06T16:15:12.404Z,95904
2018-05-06T16:20:40.538Z,95906
2018-05-06T16:26:08.698Z,95905
2018-05-06T16:31:36.845Z,95902
2018-05-06T16:37:05.045Z,95905
2018-05-06T16:42:33.219Z,95906
2018-05-06T16:48:02.128Z,95889
2018-05-06T16:53:30.273Z,95896
2018-05-06T16:58:59.212Z,95882
2018-05-06T17:04:28.110Z,95901
2018-05-06T17:09:56.252Z,95908
2018-05-06T17:15:24.414Z,95913
2018-05-06T17:20:53.528Z,95911
2018-05-06T17:26:22.474Z,95910
2018-05-06T17:31:52.330Z,95912
2018-05-06T17:37:21.241Z,95918
2018-05-06T17:42:49.444Z,95914
2018-05-06T17:48:17.511Z,95915
2018-05-06T17:53:46.454Z,95915
2018-05-06T17:59:14.711Z,95918
2018-05-06T18:04:42.854Z,95921
2018-05-06T18:10:11.018Z,95919
2018-05-06T18:15:39.975Z,95917
2018-05-06T18:21:08.125Z,95917
2018-05-06T18:26:36.334Z,95926
2018-05-06T18:32:04.509Z,95927
2018-05-06T18:37:32.794Z,95926
2018-05-06T18:43:00.972Z,95922
2018-05-06T18:48:29.118Z,95926
2018-05-06T18:53:57.346Z,95933
2018-05-06T18:59:25.561Z,95935
2018-05-06T19:04:54.742Z,95943
2018-05-06T19:10:23.898Z,95949
2018-05-06T19:15:52.071Z,95957
2018-05-06T19:21:20.237Z,95957
2018-05-06T19:26:49.140Z,95946
2018-05-06T19:32:17.398Z,95959
2018-05-06T19:37:46.362Z,95946
2018-05-06T19:43:14.443Z,95952
2018-05-06T19:48:44.314Z,95947
2018-05-06T19:54:12.448Z,95948
2018-05-06T19:59:40.579Z,95954
2018-05-06T20:05:09.695Z,95961
2018-05-06T20:10:38.614Z,95953
2018-05-06T20:16:06.841Z,95955
2018-05-06T20:21:35.015Z,95948
2018-05-06T20:27:03.159Z,95957
2018-05-06T20:32:31.353Z,95959
2018-05-06T20:37:59.681Z,95959
2018-05-06T20:43:27.848Z,95953
2018-05-06T20:48:55.982Z,95958
2018-05-06T20:54:24.945Z,95963
2018-05-06T20:59:53.208Z,95957
2018-05-06T21:05:21.453Z,95965
2018-05-06T21:10:49.520Z,95970
2018-05-06T21:16:18.453Z,95967
2018-05-06T21:21:47.362Z,95963
2018-05-06T21:27:16.362Z,95977
2018-05-06T21:32:44.496Z,95967
2018-05-06T21:38:12.653Z,95964
2018-05-06T21:43:40.790Z,95959
2018-05-06T21:49:09.129Z,95961
2018-05-06T21:54:37.403Z,95965
2018-05-06T22:00:05.484Z,95956
2018-05-06T22:05:33.675Z,95957
2018-05-06T22:11:01.876Z,95956
2018-05-06T22:16:30.023Z,95960
2018-05-06T22:21:58.338Z,95965
2018-05-06T22:27:26.515Z,95957
2018-05-06T22:32:55.482Z,95960
2018-05-06T22:38:23.640Z,95954
2018-05-06T22:43:52.706Z,95946
2018-05-06T22:49:25.332Z,95944
2018-05-06T22:54:54.232Z,95936
2018-05-06T23:00:22.393Z,95930
2018-05-06T23:05:51.318Z,95930
2018-05-06T23:11:19.475Z,95928
2018-05-06T23:16:47.625Z,95922
2018-05-06T23:22:15.805Z,95919
2018-05-06T23:27:43.905Z,95914
2018-05-06T23:33:12.816Z,95910
2018-05-06T23:38:40.958Z,95907
2018-05-06T23:44:09.107Z,95899
2018-05-06T23:49:37.285Z,95898
2018-05-06T23:55:05.476Z,95894
